Time;durP1;ratioP1;P1;durP2;ratioP2;P2;SDS_P1;SDS_P2;PMS_P1;PMS_P2;Temp;Humidity;BMP_temperature;BMP_pressure;BME280_temperature;BME280_humidity;BME280_pressure;Samples;Min_cycle;Max_cycle;Signal;HPM_P1;HPM_P2
2023/09/18 00:00:02;;;;;;;11.98;10.98;;;17.50;99.90;;;;;;5054167;28;20167;-51
2023/09/18 00:02:29;;;;;;;15.20;13.57;;;17.50;99.90;;;;;;5052817;28;20032;-53
2023/09/18 00:04:55;;;;;;;16.95;15.43;;;17.50;99.90;;;;;;5055853;28;20047;-52
2023/09/18 00:07:20;;;;;;;14.98;13.57;;;17.50;99.90;;;;;;5056196;28;20391;-52
2023/09/18 00:09:46;;;;;;;11.10;10.23;;;17.50;99.90;;;;;;5053018;28;20119;-50
2023/09/18 00:12:12;;;;;;;10.95;10.10;;;17.60;99.90;;;;;;5057576;28;20097;-55
2023/09/18 00:14:37;;;;;;;12.07;10.95;;;17.50;99.90;;;;;;5059101;28;20126;-54
2023/09/18 00:17:03;;;;;;;9.90;8.90;;;17.60;99.90;;;;;;5058722;28;20036;-56
2023/09/18 00:19:29;;;;;;;;;;;17.50;99.90;;;;;;5059815;28;20029;-53
2023/09/18 00:21:56;;;;;;;13.70;12.48;;;17.50;99.90;;;;;;5059635;28;20300;-53
2023/09/18 00:24:22;;;;;;;14.85;13.57;;;17.50;99.90;;;;;;5054995;28;20052;-55
2023/09/18 00:26:47;;;;;;;;;;;17.50;99.90;;;;;;5055833;28;20041;-53
2023/09/18 00:29:13;;;;;;;19.33;17.48;;;17.60;99.90;;;;;;5054982;28;19974;-52
2023/09/18 00:31:39;;;;;;;18.55;15.70;;;17.60;99.90;;;;;;5055071;28;20040;-54
2023/09/18 00:34:05;;;;;;;17.00;15.27;;;17.50;99.90;;;;;;5056943;28;20453;-52
2023/09/18 00:36:30;;;;;;;19.02;17.20;;;17.50;99.90;;;;;;5052239;28;20040;-55
2023/09/18 00:38:56;;;;;;;19.50;17.63;;;17.50;99.90;;;;;;5052299;28;20032;-56
2023/09/18 00:41:21;;;;;;;19.65;17.92;;;17.50;99.90;;;;;;5053470;28;20033;-56
2023/09/18 00:43:47;;;;;;;20.33;18.23;;;17.40;99.90;;;;;;5054425;28;20538;-53
2023/09/18 00:46:13;;;;;;;21.88;19.55;;;17.40;99.90;;;;;;5055902;28;20055;-59
2023/09/18 00:48:39;;;;;;;18.90;17.17;;;17.30;99.90;;;;;;5056851;28;20454;-53
2023/09/18 00:51:04;;;;;;;;;;;17.20;99.90;;;;;;5059077;28;20042;-54
2023/09/18 00:53:31;;;;;;;20.00;18.02;;;17.10;99.90;;;;;;5057606;28;19924;-53
2023/09/18 00:55:58;;;;;;;22.42;20.15;;;17.10;99.90;;;;;;5060334;28;20041;-55
2023/09/18 00:58:24;;;;;;;25.23;22.77;;;17.10;99.90;;;;;;5056882;28;20041;-55
2023/09/18 01:00:51;;;;;;;26.63;23.73;;;17.10;99.90;;;;;;5059224;28;20036;-51
2023/09/18 01:03:18;;;;;;;22.85;19.90;;;17.20;99.90;;;;;;5057978;28;20222;-53
2023/09/18 01:05:45;;;;;;;22.77;20.77;;;17.20;99.90;;;;;;5054300;28;20049;-56
2023/09/18 01:08:10;;;;;;;25.42;22.35;;;17.30;99.90;;;;;;5055383;28;20032;-57
2023/09/18 01:11:08;;;;;;;24.65;22.25;;;17.20;99.90;;;;;;5049927;28;20037;-57
2023/09/18 01:13:56;;;;;;;;;;;17.30;99.90;;;;;;5053919;28;20190;-52
2023/09/18 01:16:32;;;;;;;24.00;21.77;;;17.30;99.90;;;;;;5054567;28;19920;-56
2023/09/18 01:18:57;;;;;;;23.98;21.58;;;17.30;99.90;;;;;;5053187;28;20402;-52
2023/09/18 01:21:23;;;;;;;23.95;21.52;;;17.30;99.90;;;;;;5053090;28;20033;-58
2023/09/18 01:23:49;;;;;;;24.88;22.17;;;17.30;99.90;;;;;;5055230;28;20455;-50
2023/09/18 01:26:15;;;;;;;29.65;24.30;;;17.40;99.90;;;;;;5054793;28;20060;-56
2023/09/18 01:28:40;;;;;;;27.80;23.10;;;17.40;99.90;;;;;;5055575;28;20033;-57
2023/09/18 01:31:06;;;;;;;28.30;24.08;;;17.40;99.90;;;;;;5057818;28;20041;-54
2023/09/18 01:33:33;;;;;;;26.23;23.35;;;17.30;99.90;;;;;;5057778;28;20508;-53
2023/09/18 01:36:00;;;;;;;28.52;25.63;;;17.30;99.90;;;;;;5059743;28;20202;-52
2023/09/18 01:38:27;;;;;;;30.90;26.63;;;17.30;99.90;;;;;;5056198;28;20036;-58
2023/09/18 01:40:54;;;;;;;29.80;26.55;;;17.40;99.90;;;;;;5060611;28;20491;-55
2023/09/18 01:43:20;;;;;;;28.05;25.25;;;17.40;99.90;;;;;;5058818;28;20041;-58
2023/09/18 01:45:47;;;;;;;28.10;25.05;;;17.40;99.90;;;;;;5058030;28;20094;-57
2023/09/18 01:48:13;;;;;;;27.35;24.42;;;17.50;99.90;;;;;;5052894;28;20029;-53
2023/09/18 01:50:40;;;;;;;29.10;25.52;;;17.50;99.90;;;;;;5056992;28;20036;-56
2023/09/18 01:53:06;;;;;;;26.30;23.58;;;17.50;99.90;;;;;;5052218;28;20384;-58
2023/09/18 01:55:32;;;;;;;27.33;23.80;;;17.50;99.90;;;;;;5052766;28;20029;-52
2023/09/18 01:57:58;;;;;;;24.73;22.27;;;17.50;99.90;;;;;;5049104;28;20047;-56
2023/09/18 02:00:24;;;;;;;;;;;17.50;99.90;;;;;;5051311;28;20120;-57
2023/09/18 02:02:49;;;;;;;27.58;24.60;;;17.50;99.90;;;;;;5051955;28;20003;-56
2023/09/18 02:05:15;;;;;;;27.27;24.33;;;17.60;99.90;;;;;;5051489;28;20037;-53
2023/09/18 02:07:41;;;;;;;27.08;24.27;;;17.60;99.90;;;;;;5052622;28;20075;-51
2023/09/18 02:10:07;;;;;;;26.38;23.77;;;17.60;99.90;;;;;;5056489;28;20044;-56
2023/09/18 02:12:32;;;;;;;;;;;17.60;99.90;;;;;;5056076;28;20456;-54
2023/09/18 02:15:04;;;;;;;26.33;23.40;;;17.60;99.90;;;;;;5053216;28;19932;-56
2023/09/18 02:17:30;;;;;;;26.85;23.77;;;17.60;99.90;;;;;;5061101;28;20033;-56
2023/09/18 02:19:56;;;;;;;30.55;22.63;;;17.70;99.90;;;;;;5061898;28;20032;-55
2023/09/18 02:22:21;;;;;;;27.63;22.13;;;17.60;99.90;;;;;;5061225;28;20037;-55
2023/09/18 02:24:47;;;;;;;26.73;20.73;;;17.70;99.90;;;;;;5060289;28;20036;-55
2023/09/18 02:27:13;;;;;;;24.30;21.55;;;17.70;99.90;;;;;;5056890;28;20127;-54
2023/09/18 02:29:38;;;;;;;31.52;21.23;;;17.70;99.90;;;;;;5057428;28;20080;-56
2023/09/18 02:32:04;;;;;;;25.20;20.13;;;17.70;99.90;;;;;;5059013;28;20454;-55
2023/09/18 02:34:30;;;;;;;23.92;19.52;;;17.70;99.90;;;;;;5058325;28;20037;-52
2023/09/18 02:36:55;;;;;;;22.35;19.17;;;17.70;99.90;;;;;;5057880;28;20037;-54
2023/09/18 02:39:21;;;;;;;20.80;18.45;;;17.70;99.90;;;;;;5054593;28;20033;-53
2023/09/18 02:41:46;;;;;;;19.42;17.50;;;17.70;99.90;;;;;;5055611;28;20474;-56
2023/09/18 02:44:12;;;;;;;20.63;18.42;;;17.70;99.90;;;;;;5056525;28;20041;-57
2023/09/18 02:46:38;;;;;;;25.45;19.23;;;17.70;99.90;;;;;;5056842;28;20729;-51
2023/09/18 02:49:04;;;;;;;21.17;18.67;;;17.70;99.90;;;;;;5059064;28;20575;-55
2023/09/18 02:51:31;;;;;;;20.88;18.50;;;17.80;99.90;;;;;;5059748;28;20490;-54
2023/09/18 02:53:57;;;;;;;19.83;17.90;;;17.80;99.90;;;;;;5055977;28;20048;-55
2023/09/18 02:56:23;;;;;;;21.00;17.73;;;17.80;99.90;;;;;;5056905;28;20040;-57
2023/09/18 02:58:49;;;;;;;20.40;18.23;;;17.80;99.90;;;;;;5056514;28;20036;-55
2023/09/18 03:01:14;;;;;;;20.45;17.30;;;17.80;99.90;;;;;;5056150;28;20037;-50
2023/09/18 03:03:41;;;;;;;19.23;17.25;;;17.80;99.90;;;;;;5055921;28;20568;-55
2023/09/18 03:06:07;;;;;;;20.00;17.50;;;17.80;99.90;;;;;;5055807;28;20405;-56
2023/09/18 03:08:33;;;;;;;;;;;17.80;99.90;;;;;;5053753;28;20309;-54
2023/09/18 03:10:59;;;;;;;18.95;17.00;;;17.80;99.90;;;;;;5058168;28;19916;-56
2023/09/18 03:13:31;;;;;;;20.13;16.65;;;17.80;99.90;;;;;;5058969;28;20060;-54
2023/09/18 03:15:57;;;;;;;18.63;15.52;;;17.80;99.90;;;;;;5058176;28;20047;-54
2023/09/18 03:18:23;;;;;;;25.42;18.15;;;17.90;99.90;;;;;;5054541;28;20036;-55
2023/09/18 03:20:48;;;;;;;20.27;16.98;;;17.90;99.90;;;;;;5051270;28;20040;-54
2023/09/18 03:23:14;;;;;;;19.20;16.45;;;17.90;99.90;;;;;;5054505;28;20029;-56
2023/09/18 03:25:40;;;;;;;20.10;16.88;;;17.90;99.90;;;;;;5054871;28;20049;-54
2023/09/18 03:28:05;;;;;;;24.98;17.30;;;17.90;99.90;;;;;;5056198;28;20128;-53
2023/09/18 03:30:31;;;;;;;25.02;17.75;;;17.90;99.90;;;;;;5057059;28;20430;-51
2023/09/18 03:32:57;;;;;;;22.40;16.60;;;17.90;99.90;;;;;;5060095;28;20115;-53
2023/09/18 03:35:22;;;;;;;20.90;16.92;;;17.90;99.90;;;;;;5057022;28;20404;-55
2023/09/18 03:37:50;;;;;;;21.90;17.35;;;17.90;99.90;;;;;;5059889;28;20032;-55
2023/09/18 03:40:18;;;;;;;21.05;17.27;;;17.90;99.90;;;;;;5060009;28;20046;-56
2023/09/18 03:42:44;;;;;;;22.27;17.23;;;17.90;99.90;;;;;;5059405;28;20108;-57
2023/09/18 03:45:10;;;;;;;20.00;17.58;;;17.90;99.90;;;;;;5054389;28;20045;-57
2023/09/18 03:47:37;;;;;;;;;;;17.90;99.90;;;;;;5059524;28;20033;-55
2023/09/18 03:50:03;;;;;;;18.60;16.30;;;17.90;99.90;;;;;;5055967;28;21337;-54
2023/09/18 03:52:28;;;;;;;;;;;17.90;99.90;;;;;;5058245;28;20068;-54
2023/09/18 03:54:54;;;;;;;19.85;17.15;;;17.90;99.90;;;;;;5055766;28;19978;-54
2023/09/18 03:57:20;;;;;;;19.20;16.13;;;17.90;99.90;;;;;;5054405;28;20083;-56
2023/09/18 03:59:46;;;;;;;23.52;17.25;;;17.90;99.90;;;;;;5053727;28;20036;-55
2023/09/18 04:02:11;;;;;;;23.95;17.40;;;17.90;99.90;;;;;;5052553;28;20075;-55
2023/09/18 04:04:37;;;;;;;18.73;16.75;;;17.90;99.90;;;;;;5053309;28;20527;-52
2023/09/18 04:07:06;;;;;;;18.02;15.98;;;17.90;99.90;;;;;;5055609;28;20044;-54
2023/09/18 04:09:32;;;;;;;17.27;15.55;;;17.90;99.90;;;;;;5054717;28;20040;-55
2023/09/18 04:11:58;;;;;;;18.48;15.80;;;17.90;99.90;;;;;;5057901;28;20041;-54
2023/09/18 04:14:24;;;;;;;19.15;17.08;;;17.80;99.90;;;;;;5057695;28;20086;-53
2023/09/18 04:16:50;;;;;;;18.00;15.07;;;17.90;99.90;;;;;;5058612;28;20376;-51
2023/09/18 04:19:15;;;;;;;19.33;15.32;;;17.90;99.90;;;;;;5059250;28;20320;-57
2023/09/18 04:21:41;;;;;;;23.55;16.48;;;17.90;99.90;;;;;;5059566;28;20036;-53
2023/09/18 04:24:07;;;;;;;20.35;16.60;;;17.80;99.90;;;;;;5054196;28;20048;-52
2023/09/18 04:26:33;;;;;;;17.40;15.40;;;17.80;99.90;;;;;;5057961;28;20062;-51
2023/09/18 04:29:00;;;;;;;19.67;16.58;;;17.80;99.90;;;;;;5059168;28;20543;-55
2023/09/18 04:31:27;;;;;;;21.10;15.77;;;17.80;99.90;;;;;;5057779;28;20037;-57
2023/09/18 04:33:53;;;;;;;16.92;14.95;;;17.80;99.90;;;;;;5058034;28;20036;-57
2023/09/18 04:36:19;;;;;;;20.00;15.93;;;17.80;99.90;;;;;;5055532;28;20045;-56
2023/09/18 04:38:45;;;;;;;19.10;14.73;;;17.70;99.90;;;;;;5054722;28;20139;-59
2023/09/18 04:41:11;;;;;;;19.38;14.85;;;17.70;99.90;;;;;;5053006;28;20531;-57
2023/09/18 04:43:38;;;;;;;20.17;15.15;;;17.70;99.90;;;;;;5051861;28;20044;-57
2023/09/18 04:46:04;;;;;;;17.85;15.60;;;17.80;99.90;;;;;;5054506;28;20513;-51
2023/09/18 04:48:31;;;;;;;21.65;16.02;;;17.70;99.90;;;;;;5053437;28;20127;-52
2023/09/18 04:50:57;;;;;;;18.77;15.85;;;17.80;99.90;;;;;;5055187;28;20044;-55
2023/09/18 04:53:23;;;;;;;18.35;15.32;;;17.70;99.90;;;;;;5054374;28;20033;-53
2023/09/18 04:55:51;;;;;;;17.45;15.63;;;17.70;99.90;;;;;;5053290;28;20516;-55
2023/09/18 04:58:17;;;;;;;18.27;15.45;;;17.70;99.90;;;;;;5053946;28;20056;-55
2023/09/18 05:00:43;;;;;;;18.80;14.38;;;17.70;99.90;;;;;;5053039;28;20419;-57
2023/09/18 05:03:10;;;;;;;19.17;14.18;;;17.80;99.90;;;;;;5059314;28;20067;-55
2023/09/18 05:05:36;;;;;;;20.20;15.95;;;17.80;99.90;;;;;;5060675;28;20040;-55
2023/09/18 05:08:07;;;;;;;18.42;15.18;;;17.80;99.90;;;;;;5059188;28;20102;-55
2023/09/18 05:10:36;;;;;;;20.80;14.88;;;17.90;99.90;;;;;;5052551;28;20044;-51
2023/09/18 05:13:02;;;;;;;20.27;14.75;;;17.90;99.90;;;;;;5056308;28;20048;-55
2023/09/18 05:15:32;;;;;;;18.10;14.38;;;17.90;99.90;;;;;;5053994;28;20586;-56
2023/09/18 05:17:59;;;;;;;18.55;13.82;;;18.00;99.90;;;;;;5053307;28;20037;-56
2023/09/18 05:20:26;;;;;;;18.55;14.68;;;18.00;99.90;;;;;;5052728;28;20082;-51
2023/09/18 05:22:55;;;;;;;17.92;14.55;;;17.90;99.90;;;;;;5053727;28;20032;-56
2023/09/18 05:25:25;;;;;;;16.45;13.75;;;18.00;99.90;;;;;;5052662;28;20388;-54
2023/09/18 05:27:55;;;;;;;22.90;14.15;;;17.90;99.90;;;;;;5049962;28;20096;-57
2023/09/18 05:30:33;;;;;;;16.35;14.65;;;17.90;99.90;;;;;;5055265;28;20112;-52
2023/09/18 05:33:07;;;;;;;16.63;14.25;;;17.90;99.90;;;;;;5057187;28;20043;-52
2023/09/18 05:35:44;;;;;;;17.35;13.93;;;17.90;99.90;;;;;;5052529;28;20041;-51
2023/09/18 05:38:11;;;;;;;14.85;13.23;;;17.90;99.90;;;;;;5055996;28;20040;-55
2023/09/18 05:40:37;;;;;;;18.88;14.52;;;17.90;99.90;;;;;;5059511;28;20036;-55
2023/09/18 05:43:02;;;;;;;17.17;12.60;;;17.90;99.90;;;;;;5059654;28;20035;-56
2023/09/18 05:45:29;;;;;;;16.00;13.50;;;17.90;99.90;;;;;;5054985;28;20036;-55
2023/09/18 05:48:01;;;;;;;;;;;18.00;99.90;;;;;;5054070;28;20037;-52
2023/09/18 05:50:29;;;;;;;16.92;13.55;;;18.10;99.90;;;;;;5052049;28;20379;-52
2023/09/18 05:52:59;;;;;;;17.52;13.48;;;18.10;99.90;;;;;;5055236;28;20045;-58
2023/09/18 05:55:25;;;;;;;15.93;12.40;;;18.10;99.90;;;;;;5054443;28;20415;-53
2023/09/18 05:57:51;;;;;;;17.10;12.82;;;18.20;99.90;;;;;;5055089;28;20044;-55
2023/09/18 06:00:17;;;;;;;15.32;10.05;;;18.30;99.90;;;;;;5058629;28;20029;-55
2023/09/18 06:02:44;;;;;;;15.55;10.15;;;18.40;99.90;;;;;;5049783;28;20044;-54
2023/09/18 06:05:11;;;;;;;14.32;9.93;;;18.50;99.90;;;;;;5050191;28;20583;-52
2023/09/18 06:07:37;;;;;;;10.75;9.65;;;18.50;99.90;;;;;;5056214;28;20530;-55
2023/09/18 06:10:03;;;;;;;;;;;18.60;99.90;;;;;;5058050;28;20055;-55
2023/09/18 06:12:29;;;;;;;17.45;8.77;;;18.70;99.90;;;;;;5057809;28;19920;-53
2023/09/18 06:14:55;;;;;;;12.73;8.65;;;18.80;99.90;;;;;;5043144;28;20053;-55
2023/09/18 06:17:21;;;;;;;11.43;8.40;;;18.90;99.90;;;;;;5061232;28;20037;-53
2023/09/18 06:19:47;;;;;;;;;;;19.00;99.90;;;;;;5058605;28;20466;-55
2023/09/18 06:22:13;;;;;;;13.35;6.18;;;19.10;99.90;;;;;;5038242;28;20011;-57
2023/09/18 06:24:39;;;;;;;11.50;6.18;;;19.20;99.90;;;;;;5066303;28;20150;-54
2023/09/18 06:27:05;;;;;;;11.30;7.10;;;19.30;99.90;;;;;;5066567;28;20695;-53
2023/09/18 06:29:34;;;;;;;16.85;7.50;;;19.30;99.90;;;;;;5053828;28;20033;-55
2023/09/18 06:32:00;;;;;;;19.60;7.15;;;19.40;99.90;;;;;;5054967;28;20480;-57
2023/09/18 06:34:26;;;;;;;14.18;6.93;;;19.40;99.90;;;;;;5065729;28;20127;-51
2023/09/18 06:36:51;;;;;;;15.50;7.57;;;19.50;99.90;;;;;;5060384;28;20115;-55
2023/09/18 06:39:17;;;;;;;15.38;7.05;;;19.50;99.90;;;;;;5064476;28;20124;-55
2023/09/18 06:41:43;;;;;;;14.27;7.40;;;19.50;99.90;;;;;;5049156;28;20033;-56
2023/09/18 06:44:09;;;;;;;12.57;7.30;;;19.50;99.90;;;;;;5051073;28;20499;-57
2023/09/18 06:46:35;;;;;;;12.95;7.45;;;19.60;99.90;;;;;;5059464;28;20071;-55
2023/09/18 06:49:00;;;;;;;17.77;8.48;;;19.60;99.90;;;;;;5060523;28;20090;-56
2023/09/18 06:51:29;;;;;;;19.85;10.13;;;19.60;99.90;;;;;;5058879;28;20131;-55
2023/09/18 06:53:57;;;;;;;18.75;9.35;;;19.60;99.90;;;;;;5065215;28;20107;-53
2023/09/18 06:56:24;;;;;;;17.23;9.15;;;19.60;99.90;;;;;;5066281;28;20498;-53
2023/09/18 06:58:51;;;;;;;20.48;10.65;;;19.60;99.90;;;;;;5065477;28;20135;-55
2023/09/18 07:01:18;;;;;;;20.95;12.77;;;19.50;99.90;;;;;;5067465;28;20526;-54
2023/09/18 07:03:46;;;;;;;20.10;12.10;;;19.50;99.90;;;;;;5067953;28;20107;-57
2023/09/18 07:06:13;;;;;;;17.80;12.40;;;19.50;99.90;;;;;;5065638;28;20033;-57
2023/09/18 07:08:39;;;;;;;18.25;13.40;;;19.50;99.90;;;;;;5073339;28;20090;-57
2023/09/18 07:11:05;;;;;;;19.05;13.32;;;19.40;99.90;;;;;;5063808;28;20528;-55
2023/09/18 07:13:30;;;;;;;;;;;19.40;99.90;;;;;;5061520;28;20045;-58
2023/09/18 07:15:56;;;;;;;16.70;11.30;;;19.40;99.90;;;;;;5070152;28;20356;-52
2023/09/18 07:18:21;;;;;;;;;;;19.40;99.90;;;;;;5066966;28;20045;-58
2023/09/18 07:20:47;;;;;;;11.35;10.25;;;19.40;99.90;;;;;;5070560;28;20397;-54
2023/09/18 07:23:12;;;;;;;;;;;19.40;99.90;;;;;;5061401;28;20040;-51
2023/09/18 07:25:39;;;;;;;13.82;10.52;;;19.40;99.90;;;;;;5063678;28;19969;-51
2023/09/18 07:28:08;;;;;;;12.90;11.18;;;19.40;99.90;;;;;;5063391;28;20048;-51
2023/09/18 07:30:36;;;;;;;14.15;11.35;;;19.40;99.90;;;;;;5058586;28;20033;-54
2023/09/18 07:33:01;;;;;;;18.02;12.30;;;19.40;99.90;;;;;;5069443;28;20055;-55
2023/09/18 07:35:27;;;;;;;15.30;12.50;;;19.50;99.90;;;;;;5070269;28;20305;-58
2023/09/18 07:37:53;;;;;;;16.02;11.98;;;19.50;99.90;;;;;;5067766;28;20176;-57
2023/09/18 07:40:19;;;;;;;15.30;11.75;;;19.50;99.90;;;;;;5063640;28;20159;-59
2023/09/18 07:42:45;;;;;;;16.42;12.30;;;19.50;99.90;;;;;;5061231;28;20123;-59
2023/09/18 07:45:11;;;;;;;18.67;12.38;;;19.50;99.90;;;;;;5059489;28;20545;-59
2023/09/18 07:47:37;;;;;;;18.60;11.95;;;19.50;99.90;;;;;;5061361;28;20055;-57
2023/09/18 07:50:03;;;;;;;16.88;12.30;;;19.50;99.90;;;;;;5066676;28;20415;-56
2023/09/18 07:52:29;;;;;;;17.88;12.48;;;19.50;99.90;;;;;;5070542;28;20044;-58
2023/09/18 07:54:55;;;;;;;15.48;11.95;;;19.50;99.90;;;;;;5070171;28;20047;-57
2023/09/18 07:57:22;;;;;;;19.60;13.75;;;19.50;99.90;;;;;;5070524;28;20112;-58
2023/09/18 07:59:48;;;;;;;18.38;12.75;;;19.50;99.90;;;;;;5063404;28;20040;-59
2023/09/18 08:02:14;;;;;;;17.73;13.43;;;19.50;99.90;;;;;;5068621;28;20067;-58
2023/09/18 08:04:40;;;;;;;;;;;19.50;99.90;;;;;;5062181;28;20123;-59
2023/09/18 08:07:06;;;;;;;20.60;14.80;;;19.50;99.90;;;;;;5063686;28;19916;-58
2023/09/18 08:09:36;;;;;;;17.17;14.35;;;19.50;99.90;;;;;;5062906;28;20052;-59
2023/09/18 08:12:02;;;;;;;17.50;13.77;;;19.40;99.90;;;;;;5063142;28;20055;-59
2023/09/18 08:14:28;;;;;;;23.20;15.27;;;19.50;99.90;;;;;;5057785;28;20032;-58
2023/09/18 08:17:01;;;;;;;20.55;13.30;;;19.40;99.90;;;;;;5064768;28;20082;-57
2023/09/18 08:19:27;;;;;;;18.85;14.80;;;19.50;99.90;;;;;;5068424;28;20036;-58
2023/09/18 08:21:56;;;;;;;16.88;13.23;;;19.50;99.90;;;;;;5062129;28;20036;-56
2023/09/18 08:24:22;;;;;;;20.23;13.25;;;19.50;99.90;;;;;;5068699;28;20072;-57
2023/09/18 08:26:48;;;;;;;17.38;13.15;;;19.60;99.90;;;;;;5066872;28;20052;-58
2023/09/18 08:29:15;;;;;;;;;;;19.60;99.90;;;;;;5069854;28;20047;-57
2023/09/18 08:31:40;;;;;;;17.63;12.87;;;19.60;99.90;;;;;;5069792;28;19916;-58
2023/09/18 08:34:06;;;;;;;16.38;13.45;;;19.70;99.90;;;;;;5066820;28;20298;-58
2023/09/18 08:36:32;;;;;;;;;;;19.70;99.90;;;;;;5060411;28;20148;-59
2023/09/18 08:38:57;;;;;;;17.90;13.07;;;19.80;99.90;;;;;;5066383;28;19921;-59
2023/09/18 08:41:26;;;;;;;;;;;19.90;99.90;;;;;;5063261;28;20033;-59
2023/09/18 08:43:56;;;;;;;16.70;11.98;;;19.90;99.90;;;;;;5056471;28;19916;-60
2023/09/18 08:46:22;;;;;;;19.27;12.82;;;20.00;99.90;;;;;;5054938;28;20044;-57
2023/09/18 08:48:49;;;;;;;18.33;12.30;;;20.00;99.90;;;;;;5064908;28;20082;-58
2023/09/18 08:51:17;;;;;;;12.95;11.65;;;20.00;99.90;;;;;;5049475;28;20037;-59
2023/09/18 08:53:43;;;;;;;16.40;11.48;;;20.10;99.90;;;;;;5053985;28;20033;-58
2023/09/18 08:56:10;;;;;;;12.45;9.48;;;20.20;99.90;;;;;;5061333;28;20048;-58
2023/09/18 08:58:39;;;;;;;13.20;9.95;;;20.20;99.90;;;;;;5057391;28;20312;-60
2023/09/18 09:01:09;;;;;;;10.95;8.63;;;20.20;99.90;;;;;;5067931;28;20039;-61
2023/09/18 09:03:36;;;;;;;13.98;9.05;;;20.30;99.90;;;;;;5053431;28;20060;-59
2023/09/18 09:06:02;;;;;;;10.52;8.10;;;20.30;99.90;;;;;;5061487;28;20041;-60
2023/09/18 09:08:29;;;;;;;17.45;7.90;;;20.30;99.90;;;;;;5066739;28;20406;-60
2023/09/18 09:10:57;;;;;;;9.63;6.97;;;20.30;99.90;;;;;;5067947;28;20094;-60
2023/09/18 09:13:26;;;;;;;10.68;7.68;;;20.30;99.90;;;;;;5065670;28;20037;-59
2023/09/18 09:15:57;;;;;;;12.65;8.32;;;20.30;99.90;;;;;;5064838;28;20043;-58
2023/09/18 09:18:25;;;;;;;8.68;6.60;;;20.40;99.90;;;;;;5032443;28;20415;-57
2023/09/18 09:20:57;;;;;;;6.80;6.03;;;20.50;99.90;;;;;;5056922;28;20028;-57
2023/09/18 09:23:23;;;;;;;6.30;5.70;;;20.60;99.90;;;;;;5053725;28;20098;-57
2023/09/18 09:25:49;;;;;;;9.88;6.03;;;20.70;99.90;;;;;;5067590;28;20416;-56
2023/09/18 09:28:16;;;;;;;;;;;20.80;99.90;;;;;;5073749;28;20040;-56
2023/09/18 09:30:42;;;;;;;8.17;6.17;;;20.90;99.90;;;;;;5070984;28;19947;-54
2023/09/18 09:33:11;;;;;;;;;;;20.90;99.90;;;;;;5067619;28;20740;-57
2023/09/18 09:35:37;;;;;;;8.25;5.68;;;20.80;99.90;;;;;;5073029;28;19982;-57
2023/09/18 09:38:14;;;;;;;11.57;4.78;;;20.80;99.90;;;;;;5067716;28;20119;-57
2023/09/18 09:40:40;;;;;;;10.93;4.90;;;20.70;99.90;;;;;;5060782;28;20031;-55
2023/09/18 09:43:13;;;;;;;9.65;4.97;;;20.80;99.90;;;;;;5064918;28;20043;-55
2023/09/18 09:45:40;;;;;;;7.68;5.78;;;20.80;99.90;;;;;;5072170;28;20503;-59
2023/09/18 09:48:07;;;;;;;8.43;4.03;;;20.90;99.90;;;;;;5072288;28;20032;-58
2023/09/18 09:50:34;;;;;;;4.55;3.97;;;20.90;99.90;;;;;;5054902;28;20405;-57
2023/09/18 09:52:59;;;;;;;9.63;4.47;;;20.90;99.90;;;;;;5058607;28;20110;-57
2023/09/18 09:55:29;;;;;;;;;;;21.00;99.90;;;;;;5066008;28;20037;-56
2023/09/18 09:57:59;;;;;;;7.40;4.32;;;21.00;99.90;;;;;;5065543;28;19917;-57
2023/09/18 10:00:48;;;;;;;8.45;5.05;;;21.10;99.90;;;;;;5069360;28;20041;-57
2023/09/18 10:03:18;;;;;;;7.18;3.75;;;21.20;99.90;;;;;;5064241;28;20037;-58
2023/09/18 10:05:47;;;;;;;5.40;3.60;;;21.10;99.90;;;;;;5071168;28;20036;-56
2023/09/18 10:08:22;;;;;;;4.38;3.58;;;21.10;99.90;;;;;;5066855;28;20037;-56
2023/09/18 10:10:50;;;;;;;4.70;3.33;;;21.00;99.90;;;;;;5070411;28;20474;-57
2023/09/18 10:13:24;;;;;;;6.80;3.25;;;21.10;99.90;;;;;;5066712;28;20090;-57
2023/09/18 10:15:53;;;;;;;3.60;2.67;;;21.00;99.90;;;;;;5070190;28;20502;-58
2023/09/18 10:18:28;;;;;;;4.18;3.65;;;21.00;99.90;;;;;;5067402;28;20068;-58
2023/09/18 10:21:31;;;;;;;6.45;3.30;;;21.10;99.90;;;;;;5063318;28;20441;-57
2023/09/18 10:24:12;;;;;;;7.95;3.13;;;21.10;99.90;;;;;;5057224;28;20047;-56
2023/09/18 10:26:48;;;;;;;4.18;3.17;;;21.10;99.90;;;;;;5055716;28;20032;-58
2023/09/18 10:29:15;;;;;;;10.88;3.15;;;21.10;99.90;;;;;;5064392;28;20052;-56
2023/09/18 10:31:44;;;;;;;4.55;3.17;;;21.20;99.90;;;;;;5070965;28;20046;-58
2023/09/18 10:34:12;;;;;;;9.48;2.58;;;21.20;99.90;;;;;;5057823;28;20439;-58
2023/09/18 10:36:41;;;;;;;8.15;3.28;;;21.30;99.90;;;;;;5062605;28;20041;-57
2023/09/18 10:39:10;;;;;;;6.28;3.03;;;21.30;99.90;;;;;;5065586;28;20028;-58
2023/09/18 10:41:38;;;;;;;4.40;2.38;;;21.40;99.90;;;;;;5065735;28;20111;-56
2023/09/18 10:44:04;;;;;;;4.43;2.22;;;21.40;99.90;;;;;;5069652;28;20115;-57
2023/09/18 10:46:31;;;;;;;3.22;2.70;;;21.50;99.90;;;;;;5068600;28;20036;-58
2023/09/18 10:49:00;;;;;;;6.45;2.30;;;21.50;99.90;;;;;;5068545;28;20075;-57
2023/09/18 10:51:27;;;;;;;2.30;1.85;;;21.60;99.90;;;;;;5067916;28;20449;-56
2023/09/18 10:53:53;;;;;;;3.65;1.88;;;21.60;99.90;;;;;;5070037;28;20395;-58
2023/09/18 10:56:21;;;;;;;;;;;21.70;99.90;;;;;;5071979;28;20033;-56
2023/09/18 10:58:55;;;;;;;2.20;1.77;;;21.80;99.90;;;;;;5068540;28;19916;-58
2023/09/18 11:01:23;;;;;;;2.70;2.08;;;21.80;99.90;;;;;;5071477;28;20058;-58
2023/09/18 11:03:50;;;;;;;6.30;1.92;;;21.90;99.90;;;;;;5067725;28;20048;-58
2023/09/18 11:06:17;;;;;;;8.70;2.03;;;21.90;99.90;;;;;;5071513;28;20083;-57
2023/09/18 11:08:46;;;;;;;3.00;1.80;;;21.90;99.90;;;;;;5067410;28;20132;-58
2023/09/18 11:11:14;;;;;;;4.38;1.70;;;21.90;99.90;;;;;;5071186;28;20045;-58
2023/09/18 11:13:54;;;;;;;1.92;1.23;;;22.00;99.90;;;;;;5067628;28;20045;-57
2023/09/18 11:16:26;;;;;;;5.18;1.50;;;22.10;99.90;;;;;;5071473;28;20395;-57
2023/09/18 11:19:13;;;;;;;3.03;1.42;;;22.20;99.90;;;;;;5065965;28;20142;-58
2023/09/18 11:21:39;;;;;;;3.08;1.30;;;22.30;99.90;;;;;;5054302;28;20053;-56
2023/09/18 11:24:17;;;;;;;3.63;1.30;;;22.40;99.90;;;;;;5049261;28;20032;-57
2023/09/18 11:26:44;;;;;;;3.75;1.83;;;22.30;99.90;;;;;;5047987;28;20056;-56
2023/09/18 11:29:14;;;;;;;3.15;1.70;;;22.30;99.90;;;;;;5056337;28;20426;-56
2023/09/18 11:32:07;;;;;;;2.85;1.10;;;22.20;99.90;;;;;;5056773;28;20617;-57
2023/09/18 11:34:36;;;;;;;4.65;0.93;;;22.10;99.90;;;;;;5052051;28;20503;-57
2023/09/18 11:37:19;;;;;;;1.60;1.10;;;22.00;99.90;;;;;;5057278;28;20052;-57
2023/09/18 11:39:45;;;;;;;3.25;0.85;;;22.00;99.90;;;;;;5054273;28;20532;-57
2023/09/18 11:42:19;;;;;;;2.38;1.05;;;22.20;99.90;;;;;;5058362;28;20297;-56
2023/09/18 11:44:48;;;;;;;2.63;1.00;;;22.30;99.90;;;;;;5054208;28;20033;-58
2023/09/18 11:47:19;;;;;;;4.10;1.20;;;22.50;99.90;;;;;;5056577;28;20084;-56
2023/09/18 11:49:57;;;;;;;3.35;1.00;;;22.60;99.90;;;;;;5055628;28;20037;-58
2023/09/18 11:52:28;;;;;;;6.85;1.23;;;22.60;99.90;;;;;;5059967;28;20033;-55
2023/09/18 11:54:57;;;;;;;3.75;0.65;;;22.70;99.90;;;;;;5060262;28;20076;-57
2023/09/18 11:57:23;;;;;;;4.25;1.20;;;22.80;99.90;;;;;;5060356;28;20116;-57
2023/09/18 11:59:50;;;;;;;1.23;0.90;;;22.80;99.90;;;;;;5055396;28;20044;-57
2023/09/18 12:02:38;;;;;;;3.05;1.25;;;22.80;99.90;;;;;;5059608;28;20062;-58
2023/09/18 12:05:18;;;;;;;3.00;0.85;;;22.70;99.90;;;;;;5059267;28;20530;-57
2023/09/18 12:07:45;;;;;;;2.78;1.00;;;22.70;99.90;;;;;;5056731;28;20077;-57
2023/09/18 12:10:17;;;;;;;1.92;0.90;;;22.70;99.90;;;;;;5057112;28;20037;-57
2023/09/18 12:12:43;;;;;;;2.78;0.70;;;22.70;99.90;;;;;;5057938;28;20974;-57
2023/09/18 12:15:14;;;;;;;2.30;0.60;;;22.60;99.90;;;;;;5057743;28;20522;-58
2023/09/18 12:17:40;;;;;;;1.52;0.70;;;22.60;99.90;;;;;;5057823;28;20044;-57
2023/09/18 12:20:06;;;;;;;;;;;22.40;99.90;;;;;;5051930;28;20279;-58
2023/09/18 12:22:33;;;;;;;1.00;0.50;;;22.40;99.90;;;;;;5055677;28;19920;-58
2023/09/18 12:25:13;;;;;;;2.47;0.95;;;22.40;99.90;;;;;;5054590;28;20502;-58
2023/09/18 12:27:40;;;;;;;3.45;0.85;;;22.50;99.90;;;;;;5054396;28;20041;-57
2023/09/18 12:30:07;;;;;;;1.70;0.60;;;22.60;99.90;;;;;;5054480;28;20032;-57
2023/09/18 12:32:35;;;;;;;3.70;1.02;;;22.60;99.90;;;;;;5050548;28;20377;-57
2023/09/18 12:35:01;;;;;;;2.92;0.73;;;22.70;99.90;;;;;;5050803;28;20087;-57
2023/09/18 12:37:28;;;;;;;3.17;1.08;;;22.70;99.90;;;;;;5057686;28;20072;-57
2023/09/18 12:39:54;;;;;;;;;;;22.70;99.90;;;;;;5056467;28;20075;-57
2023/09/18 12:42:20;;;;;;;2.78;1.10;;;22.90;99.90;;;;;;5059983;28;19917;-58